Time;durP1;ratioP1;P1;durP2;ratioP2;P2;SDS_P1;SDS_P2;PMS_P1;PMS_P2;Temp;Humidity;BMP_temperature;BMP_pressure;BME280_temperature;BME280_humidity;BME280_pressure;Samples;Min_cycle;Max_cycle;Signal;HPM_P1;HPM_P2
2021/09/21 00:01:59;;;;;;;12.63;9.35;;;13.50;99.90;;;;;;5092636;28;20118;-64
2021/09/21 00:04:27;;;;;;;12.50;10.00;;;13.50;99.90;;;;;;5092492;28;20469;-65
2021/09/21 00:06:56;;;;;;;12.75;8.90;;;13.40;99.90;;;;;;5091362;28;20032;-64
2021/09/21 00:09:23;;;;;;;10.75;9.20;;;13.40;99.90;;;;;;5091403;28;20028;-64
2021/09/21 00:11:50;;;;;;;10.98;9.05;;;13.30;99.90;;;;;;5091556;28;20475;-65
2021/09/21 00:14:15;;;;;;;10.07;8.73;;;13.30;99.90;;;;;;5091211;28;20496;-64
2021/09/21 00:16:41;;;;;;;10.55;8.63;;;13.30;99.90;;;;;;5091987;28;20032;-65
2021/09/21 00:19:07;;;;;;;14.70;9.20;;;13.30;99.90;;;;;;5091268;28;20567;-64
2021/09/21 00:21:32;;;;;;;13.98;10.15;;;13.30;99.90;;;;;;5091579;28;20378;-64
2021/09/21 00:23:58;;;;;;;12.25;9.50;;;13.30;99.90;;;;;;5091329;28;20051;-64
2021/09/21 00:26:24;;;;;;;10.23;9.13;;;13.40;99.90;;;;;;5091491;28;20024;-65
2021/09/21 00:28:49;;;;;;;10.95;9.48;;;13.40;99.90;;;;;;5092103;28;20028;-64
2021/09/21 00:31:17;;;;;;;14.48;10.15;;;13.30;99.90;;;;;;5091142;28;20104;-64
2021/09/21 00:34:04;;;;;;;13.02;10.73;;;13.30;99.90;;;;;;5091308;28;20085;-64
2021/09/21 00:36:33;;;;;;;13.88;11.20;;;13.30;99.90;;;;;;5090807;28;20043;-65
2021/09/21 00:38:59;;;;;;;12.75;11.07;;;13.30;99.90;;;;;;5091439;28;20504;-64
2021/09/21 00:41:25;;;;;;;16.00;11.48;;;13.30;99.90;;;;;;5089794;28;20048;-64
2021/09/21 00:43:50;;;;;;;13.52;11.65;;;13.30;99.90;;;;;;5090760;28;20028;-65
2021/09/21 00:46:16;;;;;;;13.60;10.95;;;13.30;99.90;;;;;;5090812;28;20031;-64
2021/09/21 00:48:41;;;;;;;14.68;10.57;;;13.30;99.90;;;;;;5092006;28;20403;-64
2021/09/21 00:51:08;;;;;;;15.00;11.05;;;13.30;99.90;;;;;;5072709;28;20039;-64
2021/09/21 00:53:34;;;;;;;13.07;10.15;;;13.30;99.90;;;;;;5091882;28;20048;-64
2021/09/21 00:56:00;;;;;;;18.55;11.68;;;13.20;99.90;;;;;;5091530;28;20107;-65
2021/09/21 00:58:25;;;;;;;15.05;12.05;;;13.20;99.90;;;;;;5091211;28;20032;-65
2021/09/21 01:00:51;;;;;;;15.38;11.05;;;13.20;99.90;;;;;;5091594;28;20025;-65
2021/09/21 01:03:17;;;;;;;14.50;11.75;;;13.20;99.90;;;;;;5090916;28;20045;-64
2021/09/21 01:05:43;;;;;;;14.48;11.40;;;13.10;99.90;;;;;;5073509;28;20123;-64
2021/09/21 01:08:08;;;;;;;16.25;11.38;;;13.10;99.90;;;;;;5090884;28;20031;-65
2021/09/21 01:10:34;;;;;;;15.88;11.82;;;13.10;99.90;;;;;;5091590;28;20032;-65
2021/09/21 01:12:59;;;;;;;12.43;10.80;;;13.10;99.90;;;;;;5072850;28;20036;-64
2021/09/21 01:15:26;;;;;;;10.98;9.77;;;13.00;99.90;;;;;;5090635;28;20035;-64
2021/09/21 01:17:52;;;;;;;12.23;10.43;;;12.90;99.90;;;;;;5092313;28;20024;-64
2021/09/21 01:20:18;;;;;;;13.35;10.55;;;12.90;99.90;;;;;;5094450;28;20020;-64
2021/09/21 01:22:44;;;;;;;12.32;10.50;;;12.90;99.90;;;;;;5095228;28;20124;-64
2021/09/21 01:25:11;;;;;;;14.98;11.70;;;12.90;99.90;;;;;;5094618;28;20111;-64
2021/09/21 01:27:37;;;;;;;12.63;10.80;;;12.90;99.90;;;;;;5094497;28;20067;-65
2021/09/21 01:30:06;;;;;;;16.08;10.43;;;12.90;99.90;;;;;;5094839;28;20484;-64
2021/09/21 01:32:31;;;;;;;14.68;10.35;;;12.90;99.90;;;;;;5095366;28;20043;-64
2021/09/21 01:34:57;;;;;;;12.60;10.25;;;12.90;99.90;;;;;;5095721;28;20024;-64
2021/09/21 01:37:24;;;;;;;14.88;10.15;;;12.90;99.90;;;;;;5093754;28;20039;-64
2021/09/21 01:39:50;;;;;;;13.38;10.18;;;12.90;99.90;;;;;;5094790;28;20474;-64
2021/09/21 01:42:16;;;;;;;11.65;10.35;;;12.90;99.90;;;;;;5093589;28;20128;-64
2021/09/21 01:44:41;;;;;;;13.18;10.50;;;12.90;99.90;;;;;;5094477;28;20024;-64
2021/09/21 01:47:07;;;;;;;13.43;10.50;;;12.90;99.90;;;;;;5093926;28;20028;-64
2021/09/21 01:52:36;;;;;;;12.20;10.13;;;12.90;99.90;;;;;;5094069;28;20120;-65
2021/09/21 02:00:12;;;;;;;13.02;10.50;;;12.90;99.90;;;;;;5093234;28;20050;-65
2021/09/21 02:02:37;;;;;;;11.60;9.98;;;12.80;99.90;;;;;;5094687;28;20043;-64
2021/09/21 02:05:04;;;;;;;15.43;11.07;;;12.80;99.90;;;;;;5094446;28;20032;-64
2021/09/21 02:07:30;;;;;;;14.13;10.65;;;12.80;99.90;;;;;;5093899;28;20054;-64
2021/09/21 02:09:56;;;;;;;12.25;10.80;;;12.90;99.90;;;;;;5094140;28;20479;-64
2021/09/21 02:12:21;;;;;;;11.85;10.27;;;12.90;99.90;;;;;;5093198;28;20070;-64
2021/09/21 02:14:47;;;;;;;11.85;10.48;;;12.80;99.90;;;;;;5094727;28;20076;-64
2021/09/21 02:17:12;;;;;;;13.98;10.75;;;12.80;99.90;;;;;;5093586;28;20073;-64
2021/09/21 02:19:40;;;;;;;12.65;11.00;;;12.80;99.90;;;;;;5094539;28;20024;-64
2021/09/21 02:22:06;;;;;;;17.10;10.35;;;12.80;99.90;;;;;;5075413;28;20472;-64
2021/09/21 02:24:32;;;;;;;11.30;10.05;;;12.70;99.90;;;;;;5094136;28;20405;-64
2021/09/21 02:26:58;;;;;;;12.40;10.75;;;12.70;99.90;;;;;;5094100;28;20062;-65
2021/09/21 02:29:25;;;;;;;14.00;10.75;;;12.80;99.90;;;;;;5092635;28;20029;-64
2021/09/21 02:31:51;;;;;;;14.02;10.60;;;12.80;99.90;;;;;;5093992;28;20067;-65
2021/09/21 02:34:17;;;;;;;18.55;11.65;;;12.80;99.90;;;;;;5075160;28;20109;-64
2021/09/21 02:36:42;;;;;;;13.30;10.13;;;12.80;99.90;;;;;;5094268;28;20380;-65
2021/09/21 02:39:10;;;;;;;16.70;11.25;;;12.80;99.90;;;;;;5093086;28;20032;-65
2021/09/21 02:41:35;;;;;;;12.60;10.55;;;12.70;99.90;;;;;;5071066;28;21340;-65
2021/09/21 02:44:01;;;;;;;13.13;11.73;;;12.70;99.90;;;;;;5072000;28;20039;-64
2021/09/21 02:46:27;;;;;;;12.02;10.73;;;12.70;99.90;;;;;;5070819;28;20017;-65
2021/09/21 02:48:52;;;;;;;15.50;11.63;;;12.70;99.90;;;;;;5072847;28;20032;-64
2021/09/21 02:51:18;;;;;;;14.07;11.63;;;12.60;99.90;;;;;;5071671;28;20064;-64
2021/09/21 02:53:44;;;;;;;18.13;10.82;;;12.60;99.90;;;;;;5072311;28;20111;-64
2021/09/21 02:56:09;;;;;;;15.82;11.55;;;12.70;99.90;;;;;;5070726;28;20021;-64
2021/09/21 02:58:35;;;;;;;13.20;11.77;;;12.80;99.90;;;;;;5072094;28;20438;-65
2021/09/21 03:01:01;;;;;;;17.75;11.38;;;12.70;99.90;;;;;;5071508;28;20040;-64
2021/09/21 03:03:31;;;;;;;13.63;11.20;;;12.70;99.90;;;;;;5071213;28;20016;-65
2021/09/21 03:06:04;;;;;;;18.75;12.27;;;12.70;99.90;;;;;;5069808;28;20032;-64
2021/09/21 03:08:33;;;;;;;14.43;12.13;;;12.80;99.90;;;;;;5071261;28;20544;-65
2021/09/21 03:11:23;;;;;;;15.85;11.98;;;12.80;99.90;;;;;;5071875;28;20059;-64
2021/09/21 03:19:17;;;;;;;14.82;11.20;;;12.70;99.90;;;;;;5071157;28;20028;-65
2021/09/21 03:21:44;;;;;;;12.95;11.55;;;12.60;99.90;;;;;;5071394;28;20029;-65
2021/09/21 03:24:10;;;;;;;13.52;10.93;;;12.60;99.90;;;;;;5071053;28;20044;-65
2021/09/21 03:26:36;;;;;;;13.98;11.25;;;12.70;99.90;;;;;;5071369;28;20082;-65
2021/09/21 03:29:01;;;;;;;14.63;11.73;;;12.60;99.90;;;;;;5071133;28;20392;-65
2021/09/21 03:31:27;;;;;;;13.82;11.07;;;12.60;99.90;;;;;;5070559;28;20021;-65
2021/09/21 03:33:53;;;;;;;13.95;11.57;;;12.60;99.90;;;;;;5068864;28;20417;-65
2021/09/21 03:36:19;;;;;;;13.93;11.88;;;12.60;99.90;;;;;;5070392;28;20035;-65
2021/09/21 03:38:44;;;;;;;14.98;12.30;;;12.50;99.90;;;;;;5071177;28;20366;-65
2021/09/21 03:41:10;;;;;;;17.48;11.82;;;12.50;99.90;;;;;;5079943;28;20481;-64
2021/09/21 03:43:35;;;;;;;13.88;12.05;;;12.50;99.90;;;;;;5091397;28;20028;-65
2021/09/21 03:46:01;;;;;;;14.05;11.60;;;12.60;99.90;;;;;;5090744;28;20027;-65
2021/09/21 03:48:27;;;;;;;13.05;11.23;;;12.50;99.90;;;;;;5090558;28;20031;-65
2021/09/21 03:50:52;;;;;;;13.20;11.20;;;12.50;99.90;;;;;;5092962;28;20063;-65
2021/09/21 03:53:18;;;;;;;16.30;12.20;;;12.40;99.90;;;;;;5091617;28;20451;-64
2021/09/21 03:55:44;;;;;;;15.57;11.82;;;12.40;99.90;;;;;;5092371;28;20081;-65
2021/09/21 03:58:09;;;;;;;14.60;12.32;;;12.50;99.90;;;;;;5092000;28;20400;-65
2021/09/21 04:00:35;;;;;;;15.82;12.25;;;12.50;99.90;;;;;;5092283;28;20377;-64
2021/09/21 04:03:00;;;;;;;16.67;12.60;;;12.50;99.90;;;;;;5092049;28;20111;-65
2021/09/21 04:05:26;;;;;;;14.73;12.02;;;12.50;99.90;;;;;;5091752;28;20020;-65
2021/09/21 04:07:52;;;;;;;15.95;12.32;;;12.40;99.90;;;;;;5092431;28;20027;-65
2021/09/21 04:10:18;;;;;;;14.55;11.73;;;12.40;99.90;;;;;;5091257;28;20377;-65
2021/09/21 04:12:44;;;;;;;13.80;11.32;;;12.40;99.90;;;;;;5092066;28;20032;-64
2021/09/21 04:15:11;;;;;;;15.68;11.70;;;12.40;99.90;;;;;;5091391;28;20092;-65
2021/09/21 04:17:37;;;;;;;14.10;11.63;;;12.30;99.90;;;;;;5091936;28;20028;-64
2021/09/21 04:20:03;;;;;;;14.73;11.60;;;12.40;99.90;;;;;;5092060;28;20481;-64
2021/09/21 04:22:29;;;;;;;13.73;11.15;;;12.30;99.90;;;;;;5090984;28;20031;-64
2021/09/21 04:24:55;;;;;;;13.85;11.73;;;12.30;99.90;;;;;;5092042;28;20036;-64
2021/09/21 04:27:22;;;;;;;13.85;11.27;;;12.20;99.90;;;;;;5091153;28;20024;-64
2021/09/21 04:29:50;;;;;;;12.50;10.82;;;12.10;99.90;;;;;;5091595;28;20036;-64
2021/09/21 04:32:18;;;;;;;14.75;11.73;;;12.10;99.90;;;;;;5090799;28;20054;-65
2021/09/21 04:34:47;;;;;;;16.17;12.18;;;12.00;99.90;;;;;;5092173;28;20108;-64
2021/09/21 04:37:13;;;;;;;13.50;11.80;;;11.90;99.90;;;;;;5090770;28;20027;-64
2021/09/21 04:39:41;;;;;;;14.68;11.80;;;11.90;99.90;;;;;;5091626;28;20028;-64
2021/09/21 04:42:07;;;;;;;16.65;11.88;;;11.90;99.90;;;;;;5090926;28;20090;-64
2021/09/21 04:44:33;;;;;;;14.63;11.35;;;11.90;99.90;;;;;;5090316;28;20469;-64
2021/09/21 04:46:59;;;;;;;15.18;11.77;;;11.90;99.90;;;;;;5091321;28;20028;-64
2021/09/21 04:49:25;;;;;;;16.02;11.80;;;11.80;99.90;;;;;;5090922;28;20198;-64
2021/09/21 04:51:50;;;;;;;15.23;11.60;;;11.80;99.90;;;;;;5090911;28;20123;-64
2021/09/21 04:54:16;;;;;;;16.48;12.35;;;11.80;99.90;;;;;;5090521;28;20028;-64
2021/09/21 04:56:42;;;;;;;14.45;12.13;;;11.70;99.90;;;;;;5091947;28;20031;-64
2021/09/21 04:59:07;;;;;;;15.55;12.10;;;11.70;99.90;;;;;;5091445;28;20025;-65
2021/09/21 05:01:33;;;;;;;16.50;11.77;;;11.80;99.90;;;;;;5090517;28;20040;-65
2021/09/21 05:03:58;;;;;;;16.38;11.57;;;11.80;99.90;;;;;;5091363;28;20099;-65
2021/09/21 05:06:24;;;;;;;14.60;11.45;;;11.80;99.90;;;;;;5090447;28;20128;-64
2021/09/21 05:08:50;;;;;;;13.07;11.15;;;11.80;99.90;;;;;;5091676;28;20164;-65
2021/09/21 05:11:15;;;;;;;18.17;11.35;;;11.80;99.90;;;;;;5090768;28;20066;-65
2021/09/21 05:13:41;;;;;;;14.88;11.25;;;11.80;99.90;;;;;;5091370;28;20039;-64
2021/09/21 05:16:07;;;;;;;12.40;10.45;;;11.90;99.90;;;;;;5090883;28;20028;-65
2021/09/21 05:18:33;;;;;;;11.82;10.52;;;11.80;99.90;;;;;;5090157;28;20024;-64
2021/09/21 05:20:58;;;;;;;12.63;10.50;;;11.80;99.90;;;;;;5087706;28;20031;-68
2021/09/21 05:23:24;;;;;;;13.63;11.30;;;11.80;99.90;;;;;;5089108;28;20036;-69
2021/09/21 05:25:50;;;;;;;12.60;10.77;;;11.80;99.90;;;;;;5090623;28;20110;-67
2021/09/21 05:28:15;;;;;;;14.98;11.05;;;11.80;99.90;;;;;;5090234;28;20020;-67
2021/09/21 05:30:41;;;;;;;13.52;11.00;;;11.80;99.90;;;;;;5091329;28;20032;-70
2021/09/21 05:33:07;;;;;;;16.88;11.48;;;11.80;99.90;;;;;;5090804;28;20047;-69
2021/09/21 05:35:33;;;;;;;14.60;10.65;;;11.80;99.90;;;;;;5090586;28;20077;-72
2021/09/21 05:37:58;;;;;;;13.80;11.40;;;11.80;99.90;;;;;;5091436;28;20462;-66
2021/09/21 05:40:26;;;;;;;13.60;10.90;;;11.90;99.90;;;;;;5089844;28;20059;-67
2021/09/21 05:42:52;;;;;;;13.15;10.45;;;12.00;99.90;;;;;;5090844;28;20040;-68
2021/09/21 05:45:17;;;;;;;13.88;10.55;;;11.90;99.90;;;;;;5089055;28;20180;-67
2021/09/21 05:47:43;;;;;;;10.30;9.25;;;12.00;99.90;;;;;;5090594;28;20074;-67
2021/09/21 05:50:11;;;;;;;12.27;10.10;;;12.00;99.90;;;;;;5090578;28;20031;-67
2021/09/21 05:52:37;;;;;;;11.15;9.63;;;12.00;99.90;;;;;;5090618;28;20024;-67
2021/09/21 05:55:04;;;;;;;11.55;9.90;;;11.90;99.90;;;;;;5090724;28;20035;-68
2021/09/21 05:57:30;;;;;;;11.38;9.55;;;11.90;99.90;;;;;;5089972;28;20027;-67
2021/09/21 05:59:55;;;;;;;11.00;9.68;;;12.00;99.90;;;;;;5080000;28;20050;-67
2021/09/21 06:02:23;;;;;;;13.85;10.57;;;12.00;99.90;;;;;;5092171;28;20027;-68
2021/09/21 06:04:49;;;;;;;12.13;10.80;;;12.00;99.90;;;;;;5090964;28;20479;-67
2021/09/21 06:07:15;;;;;;;11.80;10.40;;;12.00;99.90;;;;;;5093480;28;20149;-66
2021/09/21 06:09:41;;;;;;;13.27;10.27;;;12.00;99.90;;;;;;5092969;28;20449;-67
2021/09/21 06:12:06;;;;;;;11.85;9.95;;;12.00;99.90;;;;;;5093942;28;20036;-67
2021/09/21 06:14:32;;;;;;;13.73;10.50;;;12.00;99.90;;;;;;5093423;28;20099;-67
2021/09/21 06:16:58;;;;;;;13.55;10.02;;;12.00;99.90;;;;;;5094317;28;20032;-69
2021/09/21 06:19:24;;;;;;;14.93;11.77;;;11.90;99.90;;;;;;5092925;28;20465;-67
2021/09/21 06:21:49;;;;;;;12.55;10.75;;;11.90;99.90;;;;;;5093988;28;20181;-69
2021/09/21 06:24:15;;;;;;;13.73;10.38;;;11.90;99.90;;;;;;5093415;28;20020;-67
2021/09/21 06:26:40;;;;;;;14.68;10.32;;;12.00;99.90;;;;;;5094215;28;20370;-68
2021/09/21 06:29:06;;;;;;;13.50;9.70;;;12.00;99.90;;;;;;5093993;28;20111;-69
2021/09/21 06:31:32;;;;;;;14.63;11.20;;;12.10;99.90;;;;;;5093340;28;20092;-68
2021/09/21 06:33:58;;;;;;;13.90;9.90;;;12.10;99.90;;;;;;5093838;28;20054;-67
2021/09/21 06:36:23;;;;;;;14.27;10.43;;;12.20;99.90;;;;;;5093021;28;20206;-67
2021/09/21 06:38:49;;;;;;;15.73;11.02;;;12.30;99.90;;;;;;5093679;28;20036;-68
2021/09/21 06:41:15;;;;;;;14.35;10.85;;;12.40;99.90;;;;;;5091675;28;20451;-67
2021/09/21 06:43:41;;;;;;;13.48;10.50;;;12.40;99.90;;;;;;5092924;28;20028;-67
2021/09/21 06:46:06;;;;;;;13.77;10.27;;;12.50;99.90;;;;;;5092681;28;20103;-67
2021/09/21 06:48:35;;;;;;;11.90;9.82;;;12.50;99.90;;;;;;5092529;28;20032;-68
2021/09/21 06:51:01;;;;;;;15.73;10.45;;;12.60;99.90;;;;;;5093737;28;20043;-68
2021/09/21 06:53:26;;;;;;;12.05;9.50;;;12.70;99.90;;;;;;5092829;28;20024;-68
2021/09/21 06:55:52;;;;;;;12.88;9.88;;;12.70;99.90;;;;;;5093650;28;20024;-69
2021/09/21 06:58:17;;;;;;;11.23;9.02;;;12.70;99.90;;;;;;5092339;28;20057;-67
2021/09/21 07:00:45;;;;;;;11.25;9.90;;;12.60;99.90;;;;;;5093235;28;20020;-68
2021/09/21 07:03:11;;;;;;;15.05;10.80;;;12.50;99.90;;;;;;5093492;28;20039;-68
2021/09/21 07:05:37;;;;;;;18.42;10.05;;;12.60;99.90;;;;;;5072936;28;20397;-67
2021/09/21 07:08:02;;;;;;;13.27;9.75;;;12.80;99.90;;;;;;5090686;28;20032;-67
2021/09/21 07:10:28;;;;;;;11.70;9.60;;;12.70;99.90;;;;;;5092380;28;20047;-67
2021/09/21 07:12:54;;;;;;;15.45;10.60;;;12.80;99.90;;;;;;5093098;28;20040;-69
2021/09/21 07:15:22;;;;;;;12.30;9.68;;;12.90;99.90;;;;;;5092157;28;20027;-69
2021/09/21 07:17:52;;;;;;;15.07;10.05;;;12.90;99.90;;;;;;5093236;28;20028;-68
2021/09/21 07:20:18;;;;;;;11.27;9.23;;;12.90;99.90;;;;;;5091994;28;20028;-67
2021/09/21 07:22:44;;;;;;;16.60;9.70;;;12.90;99.90;;;;;;5093230;28;20324;-68
2021/09/21 07:25:10;;;;;;;14.07;10.23;;;13.10;99.90;;;;;;5091808;28;20028;-67
2021/09/21 07:27:36;;;;;;;11.68;9.75;;;13.20;99.90;;;;;;5091809;28;20030;-68
2021/09/21 07:30:03;;;;;;;11.52;8.60;;;13.30;99.90;;;;;;5092580;28;20444;-67
2021/09/21 07:32:29;;;;;;;13.73;9.57;;;13.50;99.90;;;;;;5092149;28;20032;-67
2021/09/21 07:34:55;;;;;;;13.30;9.73;;;13.70;99.90;;;;;;5092886;28;20032;-67
2021/09/21 07:37:20;;;;;;;11.48;10.20;;;13.80;99.90;;;;;;5090667;28;20024;-67
2021/09/21 07:39:46;;;;;;;15.95;8.95;;;13.90;99.90;;;;;;5086873;28;20464;-67
2021/09/21 07:42:12;;;;;;;11.75;8.95;;;13.80;99.90;;;;;;5092182;28;20485;-68
2021/09/21 07:44:41;;;;;;;11.40;9.18;;;13.80;99.90;;;;;;5085003;28;20104;-68
2021/09/21 07:47:07;;;;;;;11.23;9.02;;;13.90;99.90;;;;;;5092096;28;20032;-68
2021/09/21 07:49:33;;;;;;;13.80;8.70;;;13.90;99.90;;;;;;5091607;28;20036;-67
2021/09/21 07:51:59;;;;;;;13.02;8.70;;;13.90;99.90;;;;;;5092443;28;20053;-68
2021/09/21 07:54:24;;;;;;;12.40;8.23;;;13.90;99.90;;;;;;5091411;28;20035;-67
2021/09/21 07:56:50;;;;;;;13.98;8.85;;;14.10;99.90;;;;;;5092272;28;20036;-67
2021/09/21 07:59:16;;;;;;;11.65;8.50;;;14.10;99.90;;;;;;5091980;28;20032;-67
2021/09/21 08:01:41;;;;;;;10.32;7.70;;;14.20;99.90;;;;;;5091582;28;20035;-67
2021/09/21 08:04:07;;;;;;;14.02;9.30;;;14.20;99.30;;;;;;5092359;28;20028;-71
2021/09/21 08:06:33;;;;;;;11.07;8.60;;;14.30;99.60;;;;;;5090862;28;20458;-67
2021/09/21 08:08:58;;;;;;;9.70;7.53;;;14.50;98.50;;;;;;5092187;28;20095;-67
2021/09/21 08:11:24;;;;;;;11.27;7.30;;;14.40;97.80;;;;;;5091493;28;20043;-67
2021/09/21 08:13:50;;;;;;;13.40;8.75;;;14.40;98.70;;;;;;5092231;28;20067;-68
2021/09/21 08:16:16;;;;;;;10.35;8.07;;;14.50;97.90;;;;;;5091741;28;20524;-66
2021/09/21 08:18:43;;;;;;;9.07;7.38;;;14.50;98.60;;;;;;5091789;28;20103;-68
2021/09/21 08:21:09;;;;;;;7.85;7.00;;;14.70;96.00;;;;;;5091264;28;20036;-67
2021/09/21 08:23:34;;;;;;;9.13;8.10;;;14.80;95.70;;;;;;5091336;28;20039;-68
2021/09/21 08:26:00;;;;;;;9.27;7.40;;;14.80;95.20;;;;;;5091558;28;20051;-68
2021/09/21 08:28:26;;;;;;;12.88;7.25;;;14.70;95.50;;;;;;5090180;28;20024;-68
2021/09/21 08:30:52;;;;;;;8.75;7.18;;;14.70;95.20;;;;;;5091560;28;20035;-67
2021/09/21 08:33:18;;;;;;;8.18;7.15;;;14.70;95.20;;;;;;5090892;28;20032;-67
2021/09/21 08:35:44;;;;;;;9.32;6.72;;;14.80;93.40;;;;;;5091834;28;20032;-67
2021/09/21 08:38:09;;;;;;;8.10;5.95;;;14.80;93.10;;;;;;5091723;28;20024;-68
2021/09/21 08:40:35;;;;;;;7.88;5.82;;;14.80;91.70;;;;;;5090103;28;20040;-67
2021/09/21 08:43:01;;;;;;;7.28;6.05;;;14.80;91.90;;;;;;5091460;28;20055;-68
2021/09/21 08:45:28;;;;;;;7.57;5.60;;;14.80;87.60;;;;;;5090644;28;20086;-67
2021/09/21 08:47:54;;;;;;;7.90;6.07;;;14.80;88.30;;;;;;5091226;28;20028;-67
2021/09/21 08:50:21;;;;;;;7.65;6.18;;;14.80;89.50;;;;;;5090206;28;20035;-67
2021/09/21 08:52:47;;;;;;;6.40;5.57;;;14.90;85.40;;;;;;5091313;28;20500;-67
2021/09/21 08:55:15;;;;;;;6.68;5.53;;;15.00;85.50;;;;;;5091542;28;20032;-67
2021/09/21 08:57:42;;;;;;;8.73;6.40;;;15.10;84.20;;;;;;5075711;28;20051;-67
2021/09/21 09:00:14;;;;;;;7.00;6.30;;;15.10;86.40;;;;;;5091256;28;20040;-68
2021/09/21 09:02:39;;;;;;;8.27;6.28;;;15.20;84.90;;;;;;5090821;28;20031;-68
2021/09/21 09:05:11;;;;;;;9.00;6.47;;;15.20;84.90;;;;;;5073232;28;20024;-68
2021/09/21 09:07:54;;;;;;;7.13;6.43;;;15.20;84.20;;;;;;5090079;28;20646;-67
2021/09/21 09:10:22;;;;;;;6.15;5.53;;;15.30;82.80;;;;;;5090286;28;20035;-67
2021/09/21 09:12:48;;;;;;;7.00;6.20;;;15.50;83.10;;;;;;5090686;28;20127;-68
2021/09/21 09:15:16;;;;;;;6.82;6.13;;;15.70;81.80;;;;;;5090664;28;20107;-67
2021/09/21 09:18:16;;;;;;;7.53;6.53;;;16.00;81.40;;;;;;5090450;28;20036;-67
2021/09/21 09:20:43;;;;;;;12.65;7.00;;;16.10;80.40;;;;;;5036586;28;20039;-68
2021/09/21 09:23:10;;;;;;;7.55;6.13;;;16.10;81.70;;;;;;5090938;28;20036;-67
2021/09/21 09:25:47;;;;;;;7.80;6.30;;;16.10;79.70;;;;;;5090123;28;20103;-67
2021/09/21 09:28:24;;;;;;;7.32;6.63;;;16.00;80.30;;;;;;5090699;28;20089;-67
2021/09/21 09:30:51;;;;;;;7.45;5.80;;;15.90;78.80;;;;;;5090172;28;20032;-67
2021/09/21 09:33:18;;;;;;;7.70;6.32;;;15.90;79.00;;;;;;5090677;28;20107;-67
2021/09/21 09:35:45;;;;;;;7.90;6.43;;;15.90;78.70;;;;;;5090018;28;20017;-67
2021/09/21 09:38:16;;;;;;;7.43;6.63;;;15.80;80.60;;;;;;5091083;28;20035;-67
2021/09/21 09:40:45;;;;;;;11.00;6.93;;;15.70;78.80;;;;;;5092320;28;20040;-67
2021/09/21 09:43:12;;;;;;;9.05;6.07;;;15.70;79.00;;;;;;5094675;28;20085;-68
2021/09/21 09:45:41;;;;;;;7.35;5.95;;;15.70;79.30;;;;;;5093663;28;20067;-67
2021/09/21 09:48:10;;;;;;;7.63;6.93;;;15.80;78.30;;;;;;5094728;28;20112;-67
2021/09/21 09:50:42;;;;;;;6.20;5.60;;;15.90;78.20;;;;;;5094365;28;20476;-67
2021/09/21 09:53:13;;;;;;;15.27;6.68;;;16.00;78.90;;;;;;5094994;28;20028;-69
2021/09/21 09:55:47;;;;;;;7.18;6.20;;;16.00;77.90;;;;;;5093822;28;20571;-67
2021/09/21 09:58:14;;;;;;;8.73;6.32;;;16.10;77.80;;;;;;5094495;28;20032;-67
2021/09/21 10:00:40;;;;;;;8.30;6.90;;;16.10;77.30;;;;;;5093582;28;20682;-67
2021/09/21 10:03:07;;;;;;;6.28;5.60;;;16.20;75.70;;;;;;5094671;28;20032;-68
2021/09/21 10:05:36;;;;;;;7.95;6.28;;;16.20;76.80;;;;;;5093661;28;20032;-67
2021/09/21 10:08:02;;;;;;;7.55;6.85;;;16.20;76.80;;;;;;5094035;28;20107;-68
2021/09/21 10:10:29;;;;;;;8.88;6.03;;;16.30;75.80;;;;;;5093645;28;20525;-67
2021/09/21 10:12:58;;;;;;;8.77;6.80;;;16.40;76.40;;;;;;5094614;28;20064;-68
2021/09/21 10:15:27;;;;;;;8.90;7.00;;;16.50;75.10;;;;;;5091606;28;20035;-71
2021/09/21 10:17:56;;;;;;;9.30;5.97;;;16.40;74.90;;;;;;5089946;28;20036;-68
2021/09/21 10:20:29;;;;;;;7.63;6.82;;;16.50;76.30;;;;;;5093218;28;20024;-67
2021/09/21 10:22:56;;;;;;;7.72;6.55;;;16.60;76.90;;;;;;5093743;28;20040;-67
2021/09/21 10:25:34;;;;;;;8.43;6.15;;;16.60;74.60;;;;;;5092737;28;20032;-66
2021/09/21 10:28:01;;;;;;;6.22;5.63;;;16.80;75.10;;;;;;5093373;28;20437;-67
2021/09/21 10:30:31;;;;;;;6.00;5.13;;;16.90;75.00;;;;;;5092859;28;20028;-67
2021/09/21 10:32:58;;;;;;;7.10;6.07;;;17.10;74.50;;;;;;5093748;28;20040;-67
2021/09/21 10:35:31;;;;;;;9.57;6.82;;;17.40;73.10;;;;;;5092570;28;20058;-67
2021/09/21 10:38:03;;;;;;;6.80;6.10;;;17.60;72.00;;;;;;5093622;28;20031;-68
2021/09/21 10:40:44;;;;;;;8.48;6.50;;;17.70;72.30;;;;;;5092411;28;20130;-67
2021/09/21 10:43:24;;;;;;;7.70;5.70;;;17.70;71.60;;;;;;5086952;28;20044;-67
2021/09/21 10:45:53;;;;;;;7.00;5.60;;;17.70;72.10;;;;;;5092676;28;20032;-68
2021/09/21 10:48:21;;;;;;;8.55;5.85;;;17.90;71.50;;;;;;5093405;28;20031;-68
2021/09/21 10:50:56;;;;;;;6.57;5.97;;;18.00;70.70;;;;;;5092381;28;20373;-67
2021/09/21 10:53:23;;;;;;;6.00;5.40;;;18.10;69.90;;;;;;5092870;28;20035;-67
2021/09/21 10:56:00;;;;;;;6.30;5.70;;;18.20;70.70;;;;;;5092888;28;20035;-67
2021/09/21 10:58:26;;;;;;;8.13;6.40;;;18.00;69.00;;;;;;5092446;28;20027;-67
2021/09/21 11:00:51;;;;;;;5.78;5.28;;;18.00;70.20;;;;;;5093012;28;20028;-67
2021/09/21 11:03:17;;;;;;;6.20;5.60;;;17.80;69.20;;;;;;5093055;28;20370;-67
2021/09/21 11:05:46;;;;;;;5.75;5.15;;;17.70;69.70;;;;;;5091829;28;20565;-67
2021/09/21 11:08:13;;;;;;;6.90;5.40;;;17.50;70.80;;;;;;5087073;28;20073;-67
2021/09/21 11:10:44;;;;;;;6.18;5.25;;;17.50;70.40;;;;;;5091839;28;20028;-67
2021/09/21 11:13:13;;;;;;;6.93;5.28;;;17.90;69.60;;;;;;5085189;28;20040;-67
2021/09/21 11:15:39;;;;;;;10.32;5.97;;;18.00;70.40;;;;;;5091963;28;20028;-67
2021/09/21 11:18:10;;;;;;;7.57;5.50;;;18.20;69.20;;;;;;5093005;28;20032;-67
2021/09/21 11:20:56;;;;;;;5.75;5.18;;;18.40;67.60;;;;;;5091933;28;20098;-67
2021/09/21 11:23:33;;;;;;;8.52;5.20;;;18.40;68.80;;;;;;5092428;28;20532;-67
2021/09/21 11:26:05;;;;;;;5.63;4.85;;;18.60;68.80;;;;;;5092379;28;20028;-67
2021/09/21 11:28:32;;;;;;;7.72;6.05;;;18.70;68.80;;;;;;5091753;28;20342;-67
2021/09/21 11:31:01;;;;;;;5.30;4.63;;;18.80;67.10;;;;;;5092414;28;20028;-67
2021/09/21 11:33:35;;;;;;;6.68;5.70;;;18.90;67.50;;;;;;5091662;28;20024;-67
2021/09/21 11:36:09;;;;;;;8.77;6.32;;;18.90;67.00;;;;;;5092386;28;20503;-67
2021/09/21 11:38:41;;;;;;;8.55;5.75;;;18.90;65.40;;;;;;5091099;28;20043;-67
2021/09/21 11:41:08;;;;;;;6.82;5.90;;;18.70;67.00;;;;;;5088780;28;20063;-67
2021/09/21 11:43:35;;;;;;;9.43;6.13;;;18.70;66.40;;;;;;5071103;28;20036;-67
2021/09/21 11:46:01;;;;;;;8.90;6.00;;;18.90;66.10;;;;;;5092122;28;20058;-68
2021/09/21 11:48:27;;;;;;;10.43;6.05;;;19.00;65.50;;;;;;5092147;28;20045;-68
2021/09/21 11:50:54;;;;;;;8.60;6.30;;;19.30;65.60;;;;;;5092219;28;20036;-68
2021/09/21 11:53:23;;;;;;;9.48;6.18;;;19.60;64.10;;;;;;5073722;28;20036;-68
2021/09/21 11:55:52;;;;;;;7.82;6.35;;;19.40;64.00;;;;;;5091523;28;20035;-68
2021/09/21 11:58:18;;;;;;;6.90;5.82;;;19.20;63.60;;;;;;5091330;28;20049;-68
2021/09/21 12:00:51;;;;;;;6.07;5.47;;;19.00;64.50;;;;;;5091393;28;20052;-68
2021/09/21 12:03:22;;;;;;;6.97;5.95;;;18.80;66.40;;;;;;5081442;28;20032;-68
2021/09/21 12:05:53;;;;;;;8.05;5.55;;;18.60;66.80;;;;;;5091472;28;20032;-68
2021/09/21 12:08:26;;;;;;;6.65;5.93;;;18.40;67.90;;;;;;5091861;28;20035;-68
2021/09/21 12:10:54;;;;;;;6.18;5.35;;;18.40;68.70;;;;;;5091203;28;20054;-68
2021/09/21 12:13:26;;;;;;;7.07;6.25;;;18.50;68.00;;;;;;5073343;28;20362;-68
2021/09/21 12:15:57;;;;;;;8.18;6.38;;;18.70;66.70;;;;;;5087616;28;20020;-68
2021/09/21 12:18:24;;;;;;;9.75;6.18;;;19.10;66.20;;;;;;5088043;28;20035;-68
2021/09/21 12:20:55;;;;;;;6.68;5.80;;;19.50;65.30;;;;;;5091130;28;20032;-69
2021/09/21 12:23:24;;;;;;;8.15;6.38;;;19.90;65.20;;;;;;5092009;28;20031;-68
2021/09/21 12:25:53;;;;;;;8.35;6.47;;;20.20;63.20;;;;;;5090749;28;20036;-68
2021/09/21 12:28:27;;;;;;;6.50;5.78;;;20.00;62.70;;;;;;5091386;28;20027;-68
2021/09/21 12:30:54;;;;;;;7.45;6.65;;;20.00;64.50;;;;;;5091346;28;20113;-69
2021/09/21 12:33:20;;;;;;;6.72;6.03;;;20.20;62.30;;;;;;5090654;28;20032;-68
2021/09/21 12:35:50;;;;;;;11.35;7.00;;;20.20;62.60;;;;;;5090473;28;20607;-67
2021/09/21 12:38:18;;;;;;;11.68;6.63;;;20.50;61.70;;;;;;5091665;28;20023;-68
2021/09/21 12:40:59;;;;;;;11.48;6.68;;;20.40;62.00;;;;;;5089411;28;20146;-68
2021/09/21 12:43:42;;;;;;;7.78;6.47;;;20.50;62.40;;;;;;5081201;28;20032;-68
2021/09/21 12:46:10;;;;;;;10.50;7.53;;;20.60;63.70;;;;;;5087188;28;20097;-69
2021/09/21 12:48:38;;;;;;;9.43;6.18;;;20.30;61.80;;;;;;5090265;28;20107;-68
2021/09/21 12:51:06;;;;;;;6.78;6.15;;;20.30;64.00;;;;;;5082881;28;20077;-69